Chewalla, Tennessee
Current Conditions -  °F | °C
As of 3:35 AM on Sunday 26 Oct 2014 (Local Time) from KCRX Reporting Station
Moderate Fog Moderate Fog  
Wind Chill: 55°   Ceiling: 100
Heat Index: 55°   Visibility: 0.25mi
Dew Point: 54°   Wind: 0mph
Humidity: 94%   Direction: NA
Pressure: 30"   Gusts: NA
Location:  35.01°N, 88.65°W
Report Text: KCRX 260835Z AUTO 00000KT 1/4SM FG BKN001 13/12 A3000 RMK AO2
Loading
Personal Weather Stations






























Interactive Weather Map
Tropical Storm Tracking
New forecast layout! Learn more

10-Day Weather Forecast

Advertisements
Track Severe Weather on mobile